Time;durP1;ratioP1;P1;durP2;ratioP2;P2;SDS_P1;SDS_P2;PMS_P1;PMS_P2;Temp;Humidity;BMP_temperature;BMP_pressure;BME280_temperature;BME280_humidity;BME280_pressure;Samples;Min_cycle;Max_cycle;Signal;HPM_P1;HPM_P2
2022/03/07 00:02:22;;;;;;;;;;;22.10;40.00;;;;;;5063176;28;19924;-44
2022/03/07 00:04:49;;;;;;;;;;;22.10;40.00;;;;;;5076641;28;19928;-44
2022/03/07 00:07:16;;;;;;;;;;;22.10;40.00;;;;;;5076518;28;20383;-43
2022/03/07 00:09:43;;;;;;;;;;;22.10;40.00;;;;;;5076372;28;19925;-43
2022/03/07 00:12:10;;;;;;;;;;;22.10;40.00;;;;;;5076030;28;19976;-46
2022/03/07 00:14:37;;;;;;;;;;;22.10;40.00;;;;;;5075471;28;19924;-45
2022/03/07 00:17:04;;;;;;;;;;;22.10;40.00;;;;;;5075198;28;19964;-47
2022/03/07 00:19:31;;;;;;;;;;;22.10;40.00;;;;;;5076295;28;20032;-44
2022/03/07 00:21:58;;;;;;;;;;;22.10;40.10;;;;;;5075506;28;20000;-46
2022/03/07 00:24:25;;;;;;;;;;;22.10;40.10;;;;;;5075925;28;19925;-44
2022/03/07 00:26:52;;;;;;;;;;;22.10;40.00;;;;;;5075820;28;20459;-46
2022/03/07 00:29:19;;;;;;;;;;;22.10;40.00;;;;;;5075055;28;19968;-45
2022/03/07 00:31:46;;;;;;;;;;;22.10;40.00;;;;;;5075195;28;20011;-45
2022/03/07 00:34:13;;;;;;;;;;;22.10;40.00;;;;;;5075303;28;19964;-45
2022/03/07 00:36:39;;;;;;;;;;;22.10;40.00;;;;;;5075988;28;20011;-43
2022/03/07 00:39:06;;;;;;;;;;;22.10;40.00;;;;;;5075661;28;20430;-46
2022/03/07 00:41:33;;;;;;;;;;;22.10;40.00;;;;;;5075809;28;20341;-45
2022/03/07 00:44:00;;;;;;;;;;;22.10;40.00;;;;;;5076492;28;19978;-44
2022/03/07 00:46:27;;;;;;;;;;;22.10;40.00;;;;;;5074837;28;19924;-43
2022/03/07 00:48:54;;;;;;;;;;;22.10;40.00;;;;;;5074936;28;19931;-44
2022/03/07 00:51:23;;;;;;;;;;;22.10;40.00;;;;;;5075193;28;19928;-45
2022/03/07 00:53:50;;;;;;;;;;;22.00;39.90;;;;;;5075176;28;20023;-42
2022/03/07 00:56:17;;;;;;;;;;;22.10;40.00;;;;;;5075360;28;19997;-46
2022/03/07 00:58:44;;;;;;;;;;;22.10;40.00;;;;;;5075553;28;20015;-43
2022/03/07 01:01:13;;;;;;;;;;;22.10;40.00;;;;;;5061942;28;19925;-47
2022/03/07 01:03:40;;;;;;;;;;;22.10;40.00;;;;;;5067623;28;19924;-45
2022/03/07 01:06:07;;;;;;;;;;;22.00;39.90;;;;;;5075127;28;20384;-44
2022/03/07 01:08:34;;;;;;;;;;;22.00;39.90;;;;;;5075067;28;19924;-45
2022/03/07 01:11:01;;;;;;;;;;;22.00;39.90;;;;;;5075002;28;19928;-45
2022/03/07 01:13:29;;;;;;;;;;;22.00;39.90;;;;;;5075677;28;19967;-51
2022/03/07 01:15:56;;;;;;;;;;;22.10;40.00;;;;;;5074225;28;20012;-50
2022/03/07 01:18:23;;;;;;;;;;;22.00;39.90;;;;;;5074507;28;19925;-51
2022/03/07 01:20:51;;;;;;;;;;;22.00;39.90;;;;;;5074432;28;19970;-48
2022/03/07 01:23:18;;;;;;;;;;;22.00;39.90;;;;;;5074796;28;19925;-48
2022/03/07 01:25:45;;;;;;;;;;;22.00;39.90;;;;;;5074729;28;19924;-46
2022/03/07 01:28:12;;;;;;;;;;;22.00;39.90;;;;;;5075738;28;19963;-47
2022/03/07 01:30:40;;;;;;;;;;;22.00;39.90;;;;;;5074623;28;19963;-50
2022/03/07 01:33:07;;;;;;;;;;;22.00;39.90;;;;;;5074105;28;19998;-52
2022/03/07 01:35:34;;;;;;;;;;;22.00;39.90;;;;;;5074716;28;20300;-46
2022/03/07 01:38:00;;;;;;;;;;;22.00;39.90;;;;;;5074550;28;20427;-44
2022/03/07 01:40:27;;;;;;;;;;;22.00;39.90;;;;;;5074371;28;19929;-46
2022/03/07 01:42:54;;;;;;;;;;;22.00;39.90;;;;;;5056977;28;19928;-47
2022/03/07 01:45:21;;;;;;;;;;;22.00;39.90;;;;;;5073830;28;20023;-44
2022/03/07 01:47:48;;;;;;;;;;;22.00;39.90;;;;;;5073499;28;19978;-43
2022/03/07 01:50:17;;;;;;;;;;;22.00;39.90;;;;;;5074528;28;19928;-44
2022/03/07 01:52:45;;;;;;;;;;;22.00;39.90;;;;;;5073892;28;20375;-44
2022/03/07 01:55:13;;;;;;;;;;;22.00;39.90;;;;;;5074175;28;19971;-43
2022/03/07 01:57:41;;;;;;;;;;;22.00;39.90;;;;;;5074340;28;20320;-42
2022/03/07 02:00:10;;;;;;;;;;;22.00;39.90;;;;;;5073679;28;20007;-44
2022/03/07 02:02:37;;;;;;;;;;;22.00;39.90;;;;;;5073456;28;19967;-44
2022/03/07 02:05:05;;;;;;;;;;;22.00;39.90;;;;;;5073422;28;19990;-42
2022/03/07 02:07:32;;;;;;;;;;;22.00;39.90;;;;;;5074239;28;19924;-43
2022/03/07 02:09:59;;;;;;;;;;;22.00;39.90;;;;;;5074178;28;19974;-46
2022/03/07 02:12:26;;;;;;;;;;;22.00;39.90;;;;;;5074028;28;20015;-45
2022/03/07 02:14:53;;;;;;;;;;;22.00;39.90;;;;;;5074065;28;20007;-44
2022/03/07 02:17:20;;;;;;;;;;;22.00;40.00;;;;;;5073286;28;19971;-46
2022/03/07 02:19:47;;;;;;;;;;;22.00;39.90;;;;;;5072916;28;20018;-47
2022/03/07 02:22:15;;;;;;;;;;;22.00;39.90;;;;;;5073799;28;19930;-47
2022/03/07 02:24:42;;;;;;;;;;;22.00;39.90;;;;;;5073533;28;20311;-45
2022/03/07 02:27:10;;;;;;;;;;;22.00;39.90;;;;;;5073806;28;20010;-46
2022/03/07 02:29:38;;;;;;;;;;;22.00;39.90;;;;;;5073755;28;19963;-47
2022/03/07 02:32:05;;;;;;;;;;;22.00;40.00;;;;;;5072981;28;19932;-44
2022/03/07 02:34:32;;;;;;;;;;;22.00;40.00;;;;;;5072715;28;19994;-43
2022/03/07 02:36:59;;;;;;;;;;;22.00;39.90;;;;;;5073671;28;19974;-45
2022/03/07 02:39:26;;;;;;;;;;;22.00;40.00;;;;;;5073382;28;20406;-45
2022/03/07 02:41:54;;;;;;;;;;;22.00;40.00;;;;;;5073370;28;19970;-45
2022/03/07 02:44:22;;;;;;;;;;;22.00;40.00;;;;;;5073634;28;20344;-44
2022/03/07 02:46:49;;;;;;;;;;;22.00;40.00;;;;;;5072530;28;19925;-43
2022/03/07 02:49:16;;;;;;;;;;;22.00;40.00;;;;;;5072436;28;20011;-43
2022/03/07 02:51:43;;;;;;;;;;;22.00;40.00;;;;;;5073311;28;19924;-44
2022/03/07 02:54:10;;;;;;;;;;;21.90;39.90;;;;;;5073035;28;20364;-43
2022/03/07 02:56:37;;;;;;;;;;;22.00;39.90;;;;;;5073172;28;19932;-44
2022/03/07 02:59:04;;;;;;;;;;;22.00;40.00;;;;;;5073505;28;20336;-44
2022/03/07 03:01:31;;;;;;;;;;;21.90;39.90;;;;;;5068636;28;20283;-45
2022/03/07 03:03:58;;;;;;;;;;;21.90;39.80;;;;;;5057473;28;19925;-47
2022/03/07 03:06:25;;;;;;;;;;;21.90;39.90;;;;;;5073416;28;19924;-45
2022/03/07 03:08:52;;;;;;;;;;;21.90;39.80;;;;;;5072983;28;19928;-44
2022/03/07 03:11:19;;;;;;;;;;;21.90;39.90;;;;;;5072940;28;19924;-43
2022/03/07 03:13:46;;;;;;;;;;;21.90;39.90;;;;;;5072844;28;19924;-44
2022/03/07 03:16:13;;;;;;;;;;;21.90;39.90;;;;;;5072296;28;19925;-44
2022/03/07 03:18:40;;;;;;;;;;;21.90;39.90;;;;;;5072340;28;20011;-43
2022/03/07 03:21:07;;;;;;;;;;;21.90;39.90;;;;;;5072577;28;19925;-45
2022/03/07 03:23:34;;;;;;;;;;;21.90;39.90;;;;;;5072868;28;19964;-46
2022/03/07 03:26:01;;;;;;;;;;;21.90;39.90;;;;;;5072943;28;20015;-48
2022/03/07 03:28:28;;;;;;;;;;;21.90;39.90;;;;;;5073142;28;19993;-46
2022/03/07 03:30:55;;;;;;;;;;;21.90;39.90;;;;;;5073529;28;19925;-42
2022/03/07 03:33:22;;;;;;;;;;;21.90;39.90;;;;;;5071841;28;19974;-46
2022/03/07 03:35:49;;;;;;;;;;;21.90;39.90;;;;;;5072277;28;19931;-43
2022/03/07 03:38:16;;;;;;;;;;;21.90;39.90;;;;;;5072744;28;19944;-46
2022/03/07 03:40:43;;;;;;;;;;;21.90;39.90;;;;;;5072677;28;19936;-46
2022/03/07 03:43:10;;;;;;;;;;;21.90;39.90;;;;;;5072982;28;19979;-44
2022/03/07 03:45:37;;;;;;;;;;;21.90;39.90;;;;;;5072975;28;19925;-45
2022/03/07 03:48:04;;;;;;;;;;;21.90;39.90;;;;;;5072180;28;19929;-44
2022/03/07 03:50:31;;;;;;;;;;;21.90;39.90;;;;;;5071393;28;20573;-43
2022/03/07 03:53:01;;;;;;;;;;;21.90;39.90;;;;;;5072690;28;20015;-43
2022/03/07 03:55:28;;;;;;;;;;;21.90;39.90;;;;;;5072855;28;19993;-44
2022/03/07 03:57:55;;;;;;;;;;;21.90;39.90;;;;;;5072806;28;20330;-44
2022/03/07 04:00:23;;;;;;;;;;;21.90;39.90;;;;;;5072680;28;19928;-45
2022/03/07 04:02:51;;;;;;;;;;;21.90;39.90;;;;;;5071885;28;20287;-45
2022/03/07 04:05:18;;;;;;;;;;;21.90;39.90;;;;;;5072049;28;20019;-43
2022/03/07 04:07:45;;;;;;;;;;;21.90;39.90;;;;;;5072448;28;19925;-44
2022/03/07 04:10:16;;;;;;;;;;;21.90;40.00;;;;;;5072612;28;19928;-43
2022/03/07 04:12:43;;;;;;;;;;;21.90;39.90;;;;;;5072361;28;20367;-45
2022/03/07 04:15:10;;;;;;;;;;;21.90;39.90;;;;;;5072077;28;19967;-43
2022/03/07 04:17:41;;;;;;;;;;;21.90;39.90;;;;;;5071522;28;20007;-45
2022/03/07 04:20:08;;;;;;;;;;;21.80;39.80;;;;;;5071984;28;19928;-44
2022/03/07 04:22:36;;;;;;;;;;;21.90;39.90;;;;;;5074338;28;20406;-48
2022/03/07 04:25:04;;;;;;;;;;;21.90;39.90;;;;;;5076177;28;19928;-45
2022/03/07 04:27:31;;;;;;;;;;;21.90;39.90;;;;;;5075844;28;19925;-52
2022/03/07 04:29:58;;;;;;;;;;;21.90;39.90;;;;;;5075808;28;19925;-49
2022/03/07 04:32:25;;;;;;;;;;;21.90;39.90;;;;;;5075311;28;19939;-49
2022/03/07 04:34:52;;;;;;;;;;;21.90;39.90;;;;;;5057294;28;19932;-44
2022/03/07 04:37:19;;;;;;;;;;;21.80;39.80;;;;;;5075890;28;20043;-46
2022/03/07 04:39:46;;;;;;;;;;;21.90;39.90;;;;;;5075620;28;19964;-48
2022/03/07 04:42:13;;;;;;;;;;;21.80;39.80;;;;;;5076283;28;20392;-47
2022/03/07 04:44:40;;;;;;;;;;;21.80;39.80;;;;;;5075541;28;19924;-43
2022/03/07 04:47:07;;;;;;;;;;;21.80;39.80;;;;;;5075401;28;19924;-41
2022/03/07 04:49:34;;;;;;;;;;;21.80;39.80;;;;;;5056208;28;19925;-43
2022/03/07 04:52:01;;;;;;;;;;;21.80;39.80;;;;;;5075521;28;20344;-44
2022/03/07 04:54:33;;;;;;;;;;;21.80;40.50;;;;;;5075301;28;19928;-48
2022/03/07 04:57:00;;;;;;;;;;;21.80;39.80;;;;;;5075326;28;19968;-46
2022/03/07 04:59:27;;;;;;;;;;;21.80;39.80;;;;;;5075544;28;19994;-45
2022/03/07 05:01:53;;;;;;;;;;;21.80;39.80;;;;;;5075559;28;19928;-45
2022/03/07 05:04:21;;;;;;;;;;;21.80;39.80;;;;;;5074816;28;19931;-44
2022/03/07 05:06:53;;;;;;;;;;;21.80;39.80;;;;;;5074402;28;19935;-44
2022/03/07 05:09:20;;;;;;;;;;;21.80;39.80;;;;;;5075372;28;20007;-42
2022/03/07 05:11:47;;;;;;;;;;;21.80;40.10;;;;;;5075083;28;20321;-47
2022/03/07 05:14:14;;;;;;;;;;;21.80;39.80;;;;;;5074926;28;19964;-45
2022/03/07 05:16:41;;;;;;;;;;;21.80;39.80;;;;;;5075692;28;19932;-45
2022/03/07 05:19:07;;;;;;;;;;;21.80;39.80;;;;;;5074486;28;19925;-44
2022/03/07 05:21:35;;;;;;;;;;;21.80;39.80;;;;;;5073684;28;20441;-43
2022/03/07 05:24:02;;;;;;;;;;;21.80;39.80;;;;;;5074771;28;19946;-48
2022/03/07 05:26:29;;;;;;;;;;;21.80;39.80;;;;;;5074768;28;20435;-44
2022/03/07 05:28:56;;;;;;;;;;;21.80;39.80;;;;;;5074709;28;20429;-44
2022/03/07 05:31:23;;;;;;;;;;;21.80;39.80;;;;;;5074955;28;19963;-44
2022/03/07 05:33:50;;;;;;;;;;;21.80;39.80;;;;;;5073035;28;19924;-42
2022/03/07 05:36:17;;;;;;;;;;;21.80;39.80;;;;;;5074039;28;19978;-44
2022/03/07 05:38:43;;;;;;;;;;;21.80;40.40;;;;;;5074541;28;19929;-42
2022/03/07 05:41:10;;;;;;;;;;;21.80;39.80;;;;;;5075558;28;19956;-47
2022/03/07 05:43:37;;;;;;;;;;;21.80;39.80;;;;;;5074431;28;19924;-45
2022/03/07 05:46:07;;;;;;;;;;;21.80;39.80;;;;;;5074317;28;19974;-43
2022/03/07 05:48:34;;;;;;;;;;;21.80;39.80;;;;;;5073553;28;19955;-44
2022/03/07 05:51:01;;;;;;;;;;;21.80;39.80;;;;;;5073601;28;19948;-43
2022/03/07 05:53:28;;;;;;;;;;;21.80;39.80;;;;;;5074405;28;19924;-46
2022/03/07 05:55:55;;;;;;;;;;;21.80;39.80;;;;;;5074138;28;19967;-44
2022/03/07 05:58:22;;;;;;;;;;;21.80;39.80;;;;;;5074464;28;19924;-43
2022/03/07 06:00:49;;;;;;;;;;;21.80;39.80;;;;;;5074407;28;19928;-47
2022/03/07 06:03:16;;;;;;;;;;;21.80;39.80;;;;;;5072138;28;19977;-44
2022/03/07 06:05:43;;;;;;;;;;;21.80;39.80;;;;;;5057809;28;20019;-43
2022/03/07 06:08:17;;;;;;;;;;;21.80;39.80;;;;;;5073791;28;19982;-45
2022/03/07 06:10:45;;;;;;;;;;;21.80;39.80;;;;;;5073737;28;20319;-46
2022/03/07 06:13:12;;;;;;;;;;;21.80;39.70;;;;;;5074095;28;19928;-45
2022/03/07 06:15:43;;;;;;;;;;;21.80;39.80;;;;;;5073651;28;20031;-46
2022/03/07 06:18:11;;;;;;;;;;;21.80;39.80;;;;;;5073241;28;20011;-44
2022/03/07 06:20:38;;;;;;;;;;;21.80;39.80;;;;;;5072653;28;19924;-44
2022/03/07 06:23:06;;;;;;;;;;;21.80;39.70;;;;;;5073475;28;19924;-45
2022/03/07 06:25:36;;;;;;;;;;;21.80;39.70;;;;;;5073822;28;19993;-45
2022/03/07 06:28:03;;;;;;;;;;;21.80;39.70;;;;;;5073788;28;19958;-47
2022/03/07 06:30:31;;;;;;;;;;;21.80;39.70;;;;;;5073647;28;20023;-44
2022/03/07 06:32:58;;;;;;;;;;;21.80;39.70;;;;;;5073694;28;19970;-45
2022/03/07 06:35:25;;;;;;;;;;;21.80;39.70;;;;;;5072236;28;19978;-44
2022/03/07 06:37:52;;;;;;;;;;;21.80;39.70;;;;;;5072848;28;19935;-44
2022/03/07 06:40:20;;;;;;;;;;;21.80;39.70;;;;;;5074367;28;20292;-46
2022/03/07 06:42:47;;;;;;;;;;;21.80;39.60;;;;;;5073621;28;19994;-44
2022/03/07 06:45:16;;;;;;;;;;;21.80;39.60;;;;;;5072929;28;20380;-46
2022/03/07 06:47:44;;;;;;;;;;;21.80;39.60;;;;;;5073454;28;19933;-46
2022/03/07 06:50:12;;;;;;;;;;;21.80;39.60;;;;;;5072402;28;19946;-47
2022/03/07 06:52:39;;;;;;;;;;;21.80;39.60;;;;;;5072259;28;20000;-42
2022/03/07 06:55:06;;;;;;;;;;;21.90;39.70;;;;;;5073036;28;19985;-44
2022/03/07 06:57:33;;;;;;;;;;;21.90;39.60;;;;;;5072994;28;19928;-44
2022/03/07 07:00:00;;;;;;;;;;;21.90;39.60;;;;;;5073019;28;19998;-44
2022/03/07 07:02:27;;;;;;;;;;;21.90;39.60;;;;;;5074392;28;19925;-50
2022/03/07 07:04:54;;;;;;;;;;;21.90;39.60;;;;;;5071860;28;19930;-50
2022/03/07 07:07:21;;;;;;;;;;;21.90;39.60;;;;;;5072219;28;19924;-45
2022/03/07 07:09:48;;;;;;;;;;;21.90;39.60;;;;;;5055282;28;20003;-45
2022/03/07 07:12:15;;;;;;;;;;;21.90;39.50;;;;;;5073337;28;19960;-45
2022/03/07 07:14:42;;;;;;;;;;;21.90;39.50;;;;;;5072874;28;20422;-46
2022/03/07 07:17:09;;;;;;;;;;;21.90;39.50;;;;;;5072898;28;20341;-47
2022/03/07 07:19:36;;;;;;;;;;;21.90;39.50;;;;;;5072165;28;19974;-42
2022/03/07 07:22:03;;;;;;;;;;;21.90;39.50;;;;;;5072201;28;20319;-44
2022/03/07 07:24:30;;;;;;;;;;;21.90;39.40;;;;;;5073047;28;20334;-44
2022/03/07 07:26:57;;;;;;;;;;;21.90;39.40;;;;;;5072839;28;20384;-46
2022/03/07 07:29:24;;;;;;;;;;;21.90;39.40;;;;;;5072650;28;19970;-46
2022/03/07 07:31:51;;;;;;;;;;;21.90;39.40;;;;;;5072712;28;19925;-51
2022/03/07 07:34:19;;;;;;;;;;;22.00;39.40;;;;;;5072074;28;19978;-48
2022/03/07 07:36:47;;;;;;;;;;;22.00;39.40;;;;;;5072242;28;19924;-44
2022/03/07 07:39:14;;;;;;;;;;;22.00;39.40;;;;;;5072622;28;19936;-45
2022/03/07 07:41:41;;;;;;;;;;;22.00;39.40;;;;;;5072591;28;19925;-50
2022/03/07 07:44:08;;;;;;;;;;;22.00;39.40;;;;;;5073163;28;20350;-50
2022/03/07 07:46:35;;;;;;;;;;;22.00;39.30;;;;;;5072900;28;20241;-48
2022/03/07 07:49:03;;;;;;;;;;;22.00;39.30;;;;;;5072617;28;19973;-45
2022/03/07 07:51:30;;;;;;;;;;;22.00;39.90;;;;;;5070842;28;20368;-49
2022/03/07 07:53:57;;;;;;;;;;;22.00;39.20;;;;;;5072677;28;19925;-49
2022/03/07 07:56:24;;;;;;;;;;;22.00;39.20;;;;;;5073468;28;20013;-46
2022/03/07 07:58:51;;;;;;;;;;;22.00;39.20;;;;;;5076556;28;19959;-47
2022/03/07 08:01:18;;;;;;;;;;;22.00;39.20;;;;;;5076221;28;20437;-46
2022/03/07 08:03:45;;;;;;;;;;;22.10;39.20;;;;;;5076386;28;19931;-45
2022/03/07 08:06:12;;;;;;;;;;;22.10;39.20;;;;;;5075708;28;19924;-47
2022/03/07 08:08:39;;;;;;;;;;;22.10;39.20;;;;;;5075591;28;19925;-50
2022/03/07 08:11:06;;;;;;;;;;;22.10;39.10;;;;;;5075694;28;19977;-46
2022/03/07 08:13:33;;;;;;;;;;;22.10;39.10;;;;;;5076171;28;19985;-47
2022/03/07 08:16:00;;;;;;;;;;;22.10;39.00;;;;;;5075951;28;19928;-43
2022/03/07 08:18:27;;;;;;;;;;;22.10;39.00;;;;;;5076671;28;20343;-44
2022/03/07 08:20:57;;;;;;;;;;;22.20;39.00;;;;;;5074747;28;20399;-48
2022/03/07 08:23:24;;;;;;;;;;;22.20;39.00;;;;;;5075442;28;19929;-43
2022/03/07 08:25:51;;;;;;;;;;;22.20;39.00;;;;;;5058327;28;20338;-44
2022/03/07 08:28:18;;;;;;;;;;;22.20;38.90;;;;;;5075812;28;19932;-45
2022/03/07 08:30:45;;;;;;;;;;;22.20;38.90;;;;;;5076151;28;19924;-46
2022/03/07 08:33:12;;;;;;;;;;;22.20;38.90;;;;;;5075921;28;19959;-45
2022/03/07 08:35:39;;;;;;;;;;;22.20;38.90;;;;;;5074899;28;19929;-48
2022/03/07 08:38:06;;;;;;;;;;;22.20;38.80;;;;;;5074788;28;19980;-46
2022/03/07 08:40:33;;;;;;;;;;;22.20;38.80;;;;;;5075630;28;19929;-45
2022/03/07 08:43:00;;;;;;;;;;;22.20;38.80;;;;;;5075549;28;20372;-44
2022/03/07 08:45:27;;;;;;;;;;;22.20;38.70;;;;;;5075570;28;19987;-47
2022/03/07 08:48:14;;;;;;;;;;;22.30;38.80;;;;;;5075361;28;20023;-44
2022/03/07 08:50:41;;;;;;;;;;;22.30;38.70;;;;;;5074953;28;19925;-43
2022/03/07 08:53:08;;;;;;;;;;;22.30;38.80;;;;;;5074735;28;19925;-45
2022/03/07 08:55:35;;;;;;;;;;;22.30;38.70;;;;;;5075180;28;20458;-44
2022/03/07 08:58:02;;;;;;;;;;;22.30;38.70;;;;;;5075606;28;20346;-45
2022/03/07 09:00:29;;;;;;;;;;;22.30;38.70;;;;;;5075560;28;19978;-43
2022/03/07 09:02:56;;;;;;;;;;;22.30;38.60;;;;;;5074806;28;19925;-44
2022/03/07 09:05:23;;;;;;;;;;;22.40;38.70;;;;;;5074724;28;19928;-44
2022/03/07 09:07:50;;;;;;;;;;;22.40;38.70;;;;;;5074145;28;20445;-45
2022/03/07 09:10:17;;;;;;;;;;;22.40;38.60;;;;;;5076106;28;19964;-46
2022/03/07 09:12:44;;;;;;;;;;;22.40;38.60;;;;;;5074916;28;19974;-44
2022/03/07 09:15:11;;;;;;;;;;;22.40;38.50;;;;;;5074941;28;20022;-43
2022/03/07 09:17:39;;;;;;;;;;;22.40;38.50;;;;;;5075200;28;19977;-44
2022/03/07 09:20:07;;;;;;;;;;;22.40;38.50;;;;;;5074678;28;19924;-43
2022/03/07 09:22:35;;;;;;;;;;;22.50;38.50;;;;;;5073321;28;19932;-41
2022/03/07 09:25:03;;;;;;;;;;;22.50;38.50;;;;;;5074790;28;19924;-46
2022/03/07 09:27:30;;;;;;;;;;;22.50;38.40;;;;;;5075039;28;19990;-45
2022/03/07 09:29:57;;;;;;;;;;;22.50;39.00;;;;;;5074684;28;20383;-45
2022/03/07 09:32:24;;;;;;;;;;;22.50;38.30;;;;;;5074916;28;19932;-46
2022/03/07 09:34:51;;;;;;;;;;;22.50;38.30;;;;;;5074391;28;19928;-44
2022/03/07 09:37:18;;;;;;;;;;;22.50;38.20;;;;;;5058514;28;19925;-47
2022/03/07 09:39:45;;;;;;;;;;;22.50;38.20;;;;;;5073329;28;19977;-43
2022/03/07 09:42:12;;;;;;;;;;;22.60;38.20;;;;;;5074393;28;19974;-45
2022/03/07 09:44:39;;;;;;;;;;;22.60;38.20;;;;;;5074273;28;20380;-46
2022/03/07 09:47:06;;;;;;;;;;;22.60;38.20;;;;;;5074314;28;19932;-44
2022/03/07 09:49:34;;;;;;;;;;;22.60;38.10;;;;;;5074275;28;19925;-45
2022/03/07 09:52:01;;;;;;;;;;;22.60;38.00;;;;;;5073284;28;19924;-45
2022/03/07 09:54:28;;;;;;;;;;;22.70;38.10;;;;;;5073627;28;19924;-42
2022/03/07 09:56:55;;;;;;;;;;;22.70;38.00;;;;;;5074428;28;19924;-46
2022/03/07 09:59:22;;;;;;;;;;;22.70;38.00;;;;;;5074494;28;20083;-42
2022/03/07 10:02:00;;;;;;;;;;;22.70;37.90;;;;;;5074391;28;20292;-46
2022/03/07 10:04:28;;;;;;;;;;;22.70;37.90;;;;;;5074161;28;19924;-42
2022/03/07 10:06:56;;;;;;;;;;;22.80;37.90;;;;;;5056071;28;19925;-50
2022/03/07 10:09:24;;;;;;;;;;;22.80;37.90;;;;;;5073927;28;19924;-43
2022/03/07 10:11:52;;;;;;;;;;;22.80;37.80;;;;;;5074744;28;19924;-42
2022/03/07 10:14:29;;;;;;;;;;;22.80;37.80;;;;;;5074711;28;19954;-44
2022/03/07 10:16:56;;;;;;;;;;;22.80;37.60;;;;;;5074703;28;19924;-43
2022/03/07 10:19:23;;;;;;;;;;;22.90;37.70;;;;;;5074266;28;19924;-46
2022/03/07 10:21:50;;;;;;;;;;;22.90;37.60;;;;;;5073172;28;19955;-44
2022/03/07 10:24:18;;;;;;;;;;;22.90;37.50;;;;;;5073572;28;19967;-45
2022/03/07 10:26:46;;;;;;;;;;;22.90;37.50;;;;;;5074496;28;19925;-43
2022/03/07 10:29:13;;;;;;;;;;;22.90;37.40;;;;;;5074544;28;19924;-45
2022/03/07 10:31:58;;;;;;;;;;;23.00;37.40;;;;;;5074180;28;20380;-42
2022/03/07 10:34:26;;;;;;;;;;;23.00;37.40;;;;;;5073966;28;19970;-43
2022/03/07 10:36:54;;;;;;;;;;;23.00;37.40;;;;;;5073606;28;19925;-44
2022/03/07 10:39:23;;;;;;;;;;;23.00;37.40;;;;;;5073297;28;20354;-48
2022/03/07 10:41:50;;;;;;;;;;;23.00;37.30;;;;;;5073993;28;20376;-51
2022/03/07 10:44:31;;;;;;;;;;;23.00;37.30;;;;;;5073888;28;20372;-52
2022/03/07 10:47:09;;;;;;;;;;;23.00;37.30;;;;;;5074217;28;19978;-44
2022/03/07 10:49:46;;;;;;;;;;;23.00;37.30;;;;;;5056612;28;20342;-51
2022/03/07 10:52:13;;;;;;;;;;;23.00;37.20;;;;;;5073340;28;19928;-47
2022/03/07 10:54:41;;;;;;;;;;;23.00;37.20;;;;;;5073250;28;19964;-48
2022/03/07 10:57:08;;;;;;;;;;;23.00;37.20;;;;;;5073815;28;20380;-49
2022/03/07 10:59:36;;;;;;;;;;;23.00;37.20;;;;;;5073787;28;20036;-53
2022/03/07 11:02:06;;;;;;;;;;;23.00;37.20;;;;;;5073876;28;20416;-44
2022/03/07 11:04:33;;;;;;;;;;;23.00;37.20;;;;;;5073618;28;20395;-43
2022/03/07 11:07:00;;;;;;;;;;;23.00;37.10;;;;;;5072980;28;19924;-43
2022/03/07 11:09:27;;;;;;;;;;;23.00;37.10;;;;;;5072947;28;19963;-47
2022/03/07 11:11:54;;;;;;;;;;;23.00;37.10;;;;;;5073980;28;19929;-47
2022/03/07 11:14:22;;;;;;;;;;;23.00;37.10;;;;;;5073654;28;19925;-45
2022/03/07 11:16:56;;;;;;;;;;;23.00;37.10;;;;;;5055830;28;19967;-44
2022/03/07 11:19:24;;;;;;;;;;;23.10;37.20;;;;;;5073571;28;19924;-46
2022/03/07 11:21:52;;;;;;;;;;;23.10;37.10;;;;;;5072638;28;19968;-43
2022/03/07 11:24:21;;;;;;;;;;;23.00;37.10;;;;;;5072675;28;19931;-44
2022/03/07 11:26:49;;;;;;;;;;;23.10;37.10;;;;;;5073680;28;19928;-44
2022/03/07 11:29:16;;;;;;;;;;;23.00;37.10;;;;;;5073509;28;19925;-44
2022/03/07 11:31:44;;;;;;;;;;;23.00;37.10;;;;;;5074153;28;19924;-42
2022/03/07 11:34:12;;;;;;;;;;;23.00;37.10;;;;;;5077769;28;19925;-41
2022/03/07 11:36:41;;;;;;;;;;;23.00;37.20;;;;;;5077481;28;19928;-45
2022/03/07 11:39:08;;;;;;;;;;;23.00;37.20;;;;;;5075900;28;19925;-45
2022/03/07 11:41:37;;;;;;;;;;;23.00;37.20;;;;;;5077675;28;19928;-49
2022/03/07 11:44:13;;;;;;;;;;;23.00;37.20;;;;;;5077694;28;20292;-45
2022/03/07 11:46:47;;;;;;;;;;;23.00;37.20;;;;;;5077697;28;20035;-45
2022/03/07 11:49:27;;;;;;;;;;;23.00;37.20;;;;;;5077622;28;19928;-43
2022/03/07 11:51:58;;;;;;;;;;;23.00;37.20;;;;;;5077083;28;20015;-44
2022/03/07 11:54:25;;;;;;;;;;;23.00;37.10;;;;;;5076135;28;19929;-49
2022/03/07 11:57:03;;;;;;;;;;;23.00;37.10;;;;;;5077022;28;20031;-42
2022/03/07 11:59:30;;;;;;;;;;;23.00;37.10;;;;;;5077373;28;20023;-43
2022/03/07 12:01:58;;;;;;;;;;;23.00;37.00;;;;;;5077359;28;19925;-47
2022/03/07 12:04:25;;;;;;;;;;;23.00;37.10;;;;;;5077158;28;19988;-42
2022/03/07 12:06:53;;;;;;;;;;;23.00;37.10;;;;;;5077177;28;20010;-47
2022/03/07 12:09:28;;;;;;;;;;;23.00;37.10;;;;;;5075460;28;20355;-44
2022/03/07 12:12:08;;;;;;;;;;;23.00;37.10;;;;;;5076720;28;19924;-46
2022/03/07 12:14:36;;;;;;;;;;;23.00;37.10;;;;;;5076737;28;19935;-43
2022/03/07 12:17:13;;;;;;;;;;;23.00;37.10;;;;;;5076945;28;19928;-44
2022/03/07 12:19:41;;;;;;;;;;;23.00;37.10;;;;;;5076877;28;19924;-43
2022/03/07 12:22:12;;;;;;;;;;;23.00;37.10;;;;;;5076519;28;20015;-43
2022/03/07 12:24:40;;;;;;;;;;;23.00;37.10;;;;;;5075511;28;19924;-43
2022/03/07 12:27:07;;;;;;;;;;;23.00;37.20;;;;;;5076509;28;19924;-43
2022/03/07 12:29:38;;;;;;;;;;;23.00;37.10;;;;;;5077254;28;19924;-42
2022/03/07 12:32:06;;;;;;;;;;;23.00;37.20;;;;;;5076750;28;20357;-43
2022/03/07 12:34:34;;;;;;;;;;;23.00;37.20;;;;;;5076308;28;19924;-42
2022/03/07 12:37:03;;;;;;;;;;;23.00;37.20;;;;;;5076630;28;20027;-42
2022/03/07 12:39:42;;;;;;;;;;;23.00;37.20;;;;;;5075121;28;19968;-42
2022/03/07 12:42:09;;;;;;;;;;;23.00;37.20;;;;;;5076305;28;20402;-42
2022/03/07 12:44:37;;;;;;;;;;;23.00;37.20;;;;;;5076088;28;19952;-43
2022/03/07 12:47:04;;;;;;;;;;;23.00;37.20;;;;;;5076554;28;19971;-42
2022/03/07 12:49:31;;;;;;;;;;;23.00;37.20;;;;;;5076120;28;20413;-44
2022/03/07 12:52:04;;;;;;;;;;;23.00;37.20;;;;;;5058642;28;19963;-42
2022/03/07 12:54:33;;;;;;;;;;;23.00;37.20;;;;;;5074619;28;20011;-42
2022/03/07 12:57:01;;;;;;;;;;;23.00;37.20;;;;;;5075980;28;19978;-41
2022/03/07 12:59:29;;;;;;;;;;;23.10;37.90;;;;;;5075901;28;20388;-42
2022/03/07 13:01:56;;;;;;;;;;;23.10;37.20;;;;;;5076212;28;19967;-45
2022/03/07 13:04:29;;;;;;;;;;;23.10;37.20;;;;;;5075776;28;19924;-45
2022/03/07 13:06:57;;;;;;;;;;;23.10;37.20;;;;;;5075856;28;19928;-42
2022/03/07 13:09:29;;;;;;;;;;;23.10;37.20;;;;;;5075325;28;19924;-41
2022/03/07 13:11:57;;;;;;;;;;;23.10;37.10;;;;;;5075437;28;19924;-43
2022/03/07 13:14:25;;;;;;;;;;;23.10;37.10;;;;;;5076049;28;20038;-42
2022/03/07 13:16:52;;;;;;;;;;;23.10;37.10;;;;;;5075826;28;20023;-43
2022/03/07 13:19:21;;;;;;;;;;;23.10;37.10;;;;;;5075647;28;20384;-43
2022/03/07 13:21:49;;;;;;;;;;;23.10;37.10;;;;;;5075389;28;19924;-43
2022/03/07 13:24:17;;;;;;;;;;;23.10;37.10;;;;;;5075066;28;20265;-43
2022/03/07 13:27:04;;;;;;;;;;;23.20;37.10;;;;;;5075233;28;19966;-45
2022/03/07 13:29:32;;;;;;;;;;;23.20;37.10;;;;;;5075738;28;19939;-43
2022/03/07 13:32:01;;;;;;;;;;;23.20;37.10;;;;;;5075363;28;19972;-42
2022/03/07 13:34:48;;;;;;;;;;;23.20;37.10;;;;;;5075442;28;19925;-43
2022/03/07 13:37:24;;;;;;;;;;;23.20;37.20;;;;;;5075515;28;19959;-44
2022/03/07 13:40:04;;;;;;;;;;;23.20;37.20;;;;;;5074180;28;19928;-44
2022/03/07 13:42:35;;;;;;;;;;;23.20;37.20;;;;;;5057565;28;19925;-43
2022/03/07 13:45:04;;;;;;;;;;;23.20;37.10;;;;;;5075144;28;20391;-45
2022/03/07 13:47:32;;;;;;;;;;;23.10;37.10;;;;;;5076338;28;19928;-47
2022/03/07 13:50:10;;;;;;;;;;;23.10;37.20;;;;;;5074984;28;19924;-50
2022/03/07 13:52:38;;;;;;;;;;;23.10;37.20;;;;;;5074716;28;19928;-52
2022/03/07 13:55:07;;;;;;;;;;;23.10;37.30;;;;;;5072770;28;19925;-46
2022/03/07 13:57:41;;;;;;;;;;;23.10;37.30;;;;;;5074773;28;19971;-50
2022/03/07 14:00:10;;;;;;;;;;;23.10;37.30;;;;;;5074788;28;19974;-46
2022/03/07 14:02:38;;;;;;;;;;;23.10;37.30;;;;;;5074579;28;19928;-45
2022/03/07 14:05:06;;;;;;;;;;;23.10;37.30;;;;;;5074965;28;20292;-48
2022/03/07 14:07:33;;;;;;;;;;;23.10;37.30;;;;;;5074845;28;19924;-43
2022/03/07 14:10:08;;;;;;;;;;;23.10;37.40;;;;;;5056342;28;19951;-44
2022/03/07 14:12:36;;;;;;;;;;;23.10;37.40;;;;;;5074747;28;19924;-42
2022/03/07 14:15:30;;;;;;;;;;;23.10;37.50;;;;;;5059666;28;19931;-48
2022/03/07 14:18:08;;;;;;;;;;;23.00;37.40;;;;;;5074428;28;19933;-43
2022/03/07 14:20:37;;;;;;;;;;;23.00;37.40;;;;;;5074218;28;19925;-47
2022/03/07 14:23:05;;;;;;;;;;;23.00;37.40;;;;;;5074174;28;19924;-46